createdAt,value
2019-03-17T00:00:33.914Z,32.9
2019-03-17T00:01:23.861Z,32.7
2019-03-17T00:02:14.959Z,32.5
2019-03-17T00:03:02.847Z,32.3
2019-03-17T00:03:54.281Z,32.2
2019-03-17T00:04:44.816Z,32
2019-03-17T00:05:34.669Z,31.8
2019-03-17T00:06:24.787Z,31.8
2019-03-17T00:07:14.792Z,31.6
2019-03-17T00:08:03.805Z,31.4
2019-03-17T00:08:55.414Z,31.3
2019-03-17T00:09:43.039Z,31.1
2019-03-17T00:10:35.280Z,31
2019-03-17T00:11:25.637Z,30.8
2019-03-17T00:12:15.135Z,30.7
2019-03-17T00:13:05.225Z,30.6
2019-03-17T00:13:56.334Z,30.4
2019-03-17T00:14:45.017Z,30.3
2019-03-17T00:15:36.197Z,30.2
2019-03-17T00:16:25.970Z,30
2019-03-17T00:17:15.267Z,29.9
2019-03-17T00:18:06.181Z,29.8
2019-03-17T00:18:54.874Z,29.6
2019-03-17T00:19:46.276Z,29.5
2019-03-17T00:20:36.336Z,29.3
2019-03-17T00:21:25.574Z,29.2
2019-03-17T00:22:16.270Z,29.1
2019-03-17T00:23:05.669Z,28.8
2019-03-17T00:23:57.038Z,29.3
2019-03-17T00:24:45.530Z,30.3
2019-03-17T00:25:36.321Z,31.3
2019-03-17T00:26:26.411Z,32.1
2019-03-17T00:27:16.267Z,32.3
2019-03-17T00:28:05.709Z,32.4
2019-03-17T00:28:56.616Z,32.4
2019-03-17T00:29:45.807Z,32.5
2019-03-17T00:30:36.398Z,32.7
2019-03-17T00:31:34.016Z,32.9
2019-03-17T00:32:16.331Z,33.2
2019-03-17T00:33:06.066Z,33.4
2019-03-17T00:33:56.731Z,33.6
2019-03-17T00:34:57.442Z,33.8
2019-03-17T00:35:37.100Z,34
2019-03-17T00:36:27.128Z,34.1
2019-03-17T00:37:17.993Z,34.3
2019-03-17T00:38:07.628Z,34.4
2019-03-17T00:38:56.473Z,34.6
2019-03-17T00:39:50.060Z,34.7
2019-03-17T00:40:37.023Z,34.4
2019-03-17T00:41:27.485Z,34.1
2019-03-17T00:42:18.184Z,33.8
2019-03-17T00:43:06.205Z,33.6
2019-03-17T00:43:58.294Z,33.4
2019-03-17T00:44:46.935Z,33.2
2019-03-17T00:45:37.212Z,33
2019-03-17T00:46:27.898Z,32.8
2019-03-17T00:47:20.390Z,32.6
2019-03-17T00:48:07.440Z,32.4
2019-03-17T00:48:58.321Z,32.3
2019-03-17T00:49:48.840Z,32.2
2019-03-17T00:50:38.730Z,31.8
2019-03-17T00:51:26.615Z,31.4
2019-03-17T00:52:17.627Z,31.2
2019-03-17T00:53:07.063Z,31
2019-03-17T00:53:58.177Z,30.8
2019-03-17T00:54:47.690Z,30.7
2019-03-17T00:55:37.719Z,30.5
2019-03-17T00:56:27.505Z,30.4
2019-03-17T00:57:17.352Z,30.2
2019-03-17T00:58:10.002Z,30.1
2019-03-17T00:58:57.662Z,29.9
2019-03-17T00:59:48.782Z,29.8
2019-03-17T01:00:38.589Z,29.6
2019-03-17T01:01:27.904Z,29.4
2019-03-17T01:02:18.743Z,28.7
2019-03-17T01:03:09.065Z,28.3
2019-03-17T01:03:59.354Z,27.9
2019-03-17T01:05:01.438Z,27.8
2019-03-17T01:05:40.631Z,27.5
2019-03-17T01:06:28.874Z,27.4
2019-03-17T01:07:19.106Z,27.3
2019-03-17T01:08:09.404Z,27.2
2019-03-17T01:08:58.609Z,27.1
2019-03-17T01:09:50.039Z,27
2019-03-17T01:10:39.324Z,26.8
2019-03-17T01:11:28.266Z,28.2
2019-03-17T01:12:19.445Z,29.5
2019-03-17T01:13:09.486Z,30.9
2019-03-17T01:13:59.314Z,31.8
2019-03-17T01:14:49.605Z,32.1
2019-03-17T01:15:40.190Z,32.3
2019-03-17T01:16:30.333Z,32.4
2019-03-17T01:17:20.061Z,32.6
2019-03-17T01:18:10.225Z,32.9
2019-03-17T01:18:59.413Z,33.1
2019-03-17T01:19:50.218Z,33.4
2019-03-17T01:20:39.700Z,33.6
2019-03-17T01:21:30.620Z,33.9
2019-03-17T01:22:19.803Z,34.1
2019-03-17T01:23:09.123Z,34.3
2019-03-17T01:23:59.138Z,34.4
2019-03-17T01:24:50.576Z,34.6
2019-03-17T01:25:40.727Z,34.8
2019-03-17T01:26:29.169Z,34.6
2019-03-17T01:27:21.118Z,34.1
2019-03-17T01:28:10.390Z,33.9
2019-03-17T01:28:59.888Z,33.8
2019-03-17T01:29:49.058Z,33.5
2019-03-17T01:30:40.495Z,33.3
2019-03-17T01:31:31.045Z,33.1
2019-03-17T01:32:20.910Z,32.9
2019-03-17T01:33:10.160Z,32.8
2019-03-17T01:33:59.924Z,32.6
2019-03-17T01:34:50.234Z,32.4
2019-03-17T01:35:41.245Z,32.3
2019-03-17T01:36:30.612Z,32.1
2019-03-17T01:37:21.442Z,31.9
2019-03-17T01:38:10.837Z,31.8
2019-03-17T01:39:01.327Z,31.6
2019-03-17T01:39:50.697Z,31.5
2019-03-17T01:40:40.810Z,31.3
2019-03-17T01:41:30.030Z,31.2
2019-03-17T01:42:24.440Z,31.1
2019-03-17T01:43:11.059Z,30.9
2019-03-17T01:44:01.609Z,30.8
2019-03-17T01:44:51.789Z,30.6
2019-03-17T01:45:41.839Z,30.4
2019-03-17T01:46:32.257Z,30.3
2019-03-17T01:47:22.771Z,30.2
2019-03-17T01:48:12.784Z,30
2019-03-17T01:49:01.731Z,29.9
2019-03-17T01:49:51.801Z,29.8
2019-03-17T01:50:42.416Z,29.6
2019-03-17T01:51:32.492Z,29.5
2019-03-17T01:52:23.105Z,29.3
2019-03-17T01:53:12.411Z,29.2
2019-03-17T01:54:02.433Z,29.2
2019-03-17T01:54:52.776Z,28.8
2019-03-17T01:55:42.468Z,29.8
2019-03-17T01:56:32.006Z,30.9
2019-03-17T01:57:22.610Z,31.9
2019-03-17T01:58:11.833Z,32.2
2019-03-17T01:59:02.724Z,32.3
2019-03-17T01:59:52.828Z,32.4
2019-03-17T02:00:42.966Z,32.7
2019-03-17T02:01:33.238Z,32.9
2019-03-17T02:02:23.651Z,33.1
2019-03-17T02:03:12.327Z,33.4
2019-03-17T02:04:03.643Z,33.6
2019-03-17T02:04:52.933Z,33.8
2019-03-17T02:05:44.008Z,34.1
2019-03-17T02:06:33.295Z,34.3
2019-03-17T02:07:23.570Z,34.4
2019-03-17T02:08:13.080Z,34.6
2019-03-17T02:09:02.052Z,34.8
2019-03-17T02:09:53.825Z,34.8
2019-03-17T02:10:43.438Z,34.2
2019-03-17T02:11:33.130Z,33.8
2019-03-17T02:12:23.688Z,33.6
2019-03-17T02:13:14.082Z,33.3
2019-03-17T02:14:04.101Z,33.1
2019-03-17T02:14:54.170Z,32.9
2019-03-17T02:15:42.408Z,32.8
2019-03-17T02:16:34.005Z,32.6
2019-03-17T02:17:24.017Z,32.4
2019-03-17T02:18:13.540Z,32.2
2019-03-17T02:19:04.793Z,32.1
2019-03-17T02:19:54.814Z,31.9
2019-03-17T02:20:43.720Z,31.8
2019-03-17T02:21:34.879Z,31.6
2019-03-17T02:22:27.227Z,31.5
2019-03-17T02:23:14.020Z,31.3
2019-03-17T02:24:04.525Z,31.2
2019-03-17T02:24:54.840Z,31
2019-03-17T02:25:44.881Z,30.9
2019-03-17T02:26:34.957Z,30.8
2019-03-17T02:27:24.834Z,30.6
2019-03-17T02:28:15.992Z,30.5
2019-03-17T02:29:04.878Z,30.3
2019-03-17T02:29:55.917Z,30.2
2019-03-17T02:30:44.949Z,30.1
2019-03-17T02:31:35.727Z,29.9
2019-03-17T02:32:25.518Z,29.8
2019-03-17T02:33:14.512Z,29.7
2019-03-17T02:34:05.569Z,29.5
2019-03-17T02:34:54.846Z,29.4
2019-03-17T02:35:49.603Z,29.3
2019-03-17T02:36:36.059Z,29.1
2019-03-17T02:37:25.122Z,29.1
2019-03-17T02:38:16.013Z,28.7
2019-03-17T02:39:05.492Z,29.6
2019-03-17T02:39:54.974Z,30.6
2019-03-17T02:40:46.434Z,31.7
2019-03-17T02:41:35.871Z,32.3
2019-03-17T02:42:26.039Z,32.3
2019-03-17T02:43:15.504Z,32.4
2019-03-17T02:44:06.606Z,32.6
2019-03-17T02:44:55.684Z,32.7
2019-03-17T02:45:45.978Z,32.9
2019-03-17T02:46:36.330Z,33.1
2019-03-17T02:47:26.414Z,33.4
2019-03-17T02:48:15.111Z,33.6
2019-03-17T02:49:06.236Z,33.8
2019-03-17T02:49:57.087Z,34
2019-03-17T02:50:46.800Z,34.2
2019-03-17T02:51:37.231Z,34.3
2019-03-17T02:52:26.674Z,34.5
2019-03-17T02:53:16.418Z,34.7
2019-03-17T02:54:07.654Z,34.8
2019-03-17T02:54:57.436Z,34.1
2019-03-17T02:55:46.451Z,33.9
2019-03-17T02:56:37.521Z,33.7
2019-03-17T02:57:27.458Z,33.5
2019-03-17T02:58:17.673Z,33.3
2019-03-17T02:59:06.988Z,33.2
2019-03-17T02:59:56.951Z,32.9
2019-03-17T03:00:48.080Z,32.8
2019-03-17T03:01:37.889Z,32.6
2019-03-17T03:02:27.191Z,32.5
2019-03-17T03:03:18.050Z,32.3
2019-03-17T03:04:08.087Z,32.1
2019-03-17T03:07:39.037Z,31.5
2019-03-17T03:08:29.541Z,31.4
2019-03-17T03:09:19.669Z,31.2
2019-03-17T03:10:10.204Z,31.1
2019-03-17T03:10:59.794Z,30.9
2019-03-17T03:11:49.600Z,30.8
2019-03-17T03:12:40.515Z,30.6
2019-03-17T03:13:29.031Z,30.4
2019-03-17T03:14:19.924Z,30.3
2019-03-17T03:15:10.382Z,30.2
2019-03-17T03:16:00.530Z,30.1
2019-03-17T03:16:49.789Z,29.9
2019-03-17T03:17:40.547Z,29.8
2019-03-17T03:18:29.129Z,29.6
2019-03-17T03:19:20.241Z,29.5
2019-03-17T03:20:10.742Z,29.4
2019-03-17T03:21:00.497Z,29.3
2019-03-17T03:21:50.130Z,29.1
2019-03-17T03:22:41.229Z,29.1
2019-03-17T03:23:30.813Z,30.1
2019-03-17T03:24:21.180Z,31.2
2019-03-17T03:25:11.092Z,32.2
2019-03-17T03:26:00.826Z,32.6
2019-03-17T03:26:50.467Z,32.6
2019-03-17T03:27:40.961Z,32.6
2019-03-17T03:28:31.485Z,32.8
2019-03-17T03:29:21.548Z,32.9
2019-03-17T03:30:10.449Z,33.1
2019-03-17T03:31:01.354Z,33.3
2019-03-17T03:31:51.915Z,33.6
2019-03-17T03:32:41.886Z,33.8
2019-03-17T03:33:32.386Z,34
2019-03-17T03:34:21.546Z,34.2
2019-03-17T03:35:11.614Z,34.4
2019-03-17T03:36:19.412Z,34.6
2019-03-17T03:36:51.248Z,34.8
2019-03-17T03:37:41.905Z,34.5
2019-03-17T03:38:31.641Z,34.1
2019-03-17T03:39:21.194Z,33.8
2019-03-17T03:40:12.025Z,33.6
2019-03-17T03:41:01.545Z,33.4
2019-03-17T03:41:52.090Z,33.2
2019-03-17T03:42:41.724Z,33
2019-03-17T03:43:31.939Z,32.8
2019-03-17T03:44:22.122Z,32.7
2019-03-17T03:45:12.117Z,32.5
2019-03-17T03:46:01.592Z,32.3
2019-03-17T03:46:51.953Z,32.2
2019-03-17T03:47:42.246Z,32
2019-03-17T03:48:32.046Z,31.9
2019-03-17T03:49:21.893Z,31.7
2019-03-17T03:50:12.408Z,31.6
2019-03-17T03:51:01.744Z,31.4
2019-03-17T03:51:52.056Z,31.3
2019-03-17T03:52:42.123Z,31.1
2019-03-17T03:53:33.075Z,30.9
2019-03-17T03:54:23.077Z,30.8
2019-03-17T03:55:13.044Z,30.7
2019-03-17T03:56:02.653Z,30.6
2019-03-17T03:56:52.623Z,30.4
2019-03-17T03:57:43.484Z,30.3
2019-03-17T03:58:32.760Z,30.1
2019-03-17T03:59:22.533Z,30
2019-03-17T04:00:12.649Z,29.8
2019-03-17T04:01:03.261Z,29.7
2019-03-17T04:01:53.516Z,29.6
2019-03-17T04:02:43.987Z,29.4
2019-03-17T04:03:33.160Z,29.3
2019-03-17T04:04:22.597Z,29.1
2019-03-17T04:05:14.332Z,29
2019-03-17T04:06:03.495Z,29.3
2019-03-17T04:06:53.740Z,30.3
2019-03-17T04:07:43.767Z,31.4
2019-03-17T04:08:33.779Z,32.3
2019-03-17T04:09:23.764Z,32.4
2019-03-17T04:10:13.645Z,32.6
2019-03-17T04:11:03.980Z,32.7
2019-03-17T04:11:53.929Z,32.8
2019-03-17T04:12:44.265Z,32.9
2019-03-17T04:13:33.447Z,33.2
2019-03-17T04:14:24.516Z,33.4
2019-03-17T04:15:14.473Z,33.6
2019-03-17T04:16:04.579Z,33.9
2019-03-17T04:16:53.963Z,34.1
2019-03-17T04:17:44.699Z,34.3
2019-03-17T04:18:34.545Z,34.4
2019-03-17T04:19:24.360Z,34.6
2019-03-17T04:20:14.382Z,34.8
2019-03-17T04:21:04.973Z,34.2
2019-03-17T04:21:54.146Z,33.9
2019-03-17T04:22:44.373Z,33.8
2019-03-17T04:23:34.244Z,33.5
2019-03-17T04:24:25.609Z,33.3
2019-03-17T04:25:29.503Z,33.1
2019-03-17T04:26:05.308Z,32.9
2019-03-17T04:26:55.306Z,32.8
2019-03-17T04:27:44.281Z,32.6
2019-03-17T04:28:35.756Z,32.4
2019-03-17T04:29:24.590Z,32.3
2019-03-17T04:30:14.608Z,32.2
2019-03-17T04:31:06.014Z,31.8
2019-03-17T04:31:55.183Z,31.4
2019-03-17T04:32:45.656Z,31.2
2019-03-17T04:33:35.493Z,31
2019-03-17T04:34:25.256Z,30.8
2019-03-17T04:35:15.469Z,30.7
2019-03-17T04:36:06.220Z,30.5
2019-03-17T04:36:56.075Z,30.4
2019-03-17T04:37:45.298Z,30.3
2019-03-17T04:38:36.432Z,30.1
2019-03-17T04:39:25.708Z,29.9
2019-03-17T04:40:16.350Z,29.8
2019-03-17T04:41:05.632Z,29.6
2019-03-17T04:41:55.422Z,29.5
2019-03-17T04:42:46.087Z,29.4
2019-03-17T04:43:36.097Z,29.3
2019-03-17T04:44:31.084Z,29.1
2019-03-17T04:45:15.985Z,28.5
2019-03-17T04:46:05.894Z,29.5
2019-03-17T04:46:56.069Z,30.6
2019-03-17T04:47:46.674Z,31.7
2019-03-17T04:48:35.937Z,32.3
2019-03-17T04:49:27.054Z,32.4
2019-03-17T04:50:16.079Z,32.5
2019-03-17T04:51:06.629Z,32.6
2019-03-17T04:51:56.740Z,32.7
2019-03-17T04:52:46.512Z,32.9
2019-03-17T04:53:36.589Z,33.1
2019-03-17T04:54:27.164Z,33.4
2019-03-17T04:55:16.684Z,33.6
2019-03-17T04:56:06.724Z,33.8
2019-03-17T04:56:56.473Z,34
2019-03-17T04:57:47.248Z,34.2
2019-03-17T04:58:36.943Z,34.4
2019-03-17T04:59:27.301Z,34.6
2019-03-17T05:00:16.566Z,34.7
2019-03-17T05:01:07.369Z,34.3
2019-03-17T05:01:57.991Z,34
2019-03-17T05:02:47.757Z,33.8
2019-03-17T05:03:38.081Z,33.7
2019-03-17T05:04:27.119Z,33.4
2019-03-17T05:05:17.143Z,33.3
2019-03-17T05:06:07.986Z,33.1
2019-03-17T05:07:02.381Z,32.9
2019-03-17T05:07:47.603Z,32.8
2019-03-17T05:08:38.183Z,32.6
2019-03-17T05:09:28.201Z,32.4
2019-03-17T05:10:18.593Z,32.3
2019-03-17T05:11:07.606Z,32.1
2019-03-17T05:11:57.823Z,31.6
2019-03-17T05:12:48.430Z,31.3
2019-03-17T05:13:37.962Z,31.1
2019-03-17T05:14:28.055Z,30.9
2019-03-17T05:15:18.413Z,30.7
2019-03-17T05:16:07.846Z,30.6
2019-03-17T05:16:58.266Z,30.4
2019-03-17T05:17:48.223Z,30.3
2019-03-17T05:18:38.325Z,30.1
2019-03-17T05:19:28.914Z,29.9
2019-03-17T05:20:18.736Z,29.8
2019-03-17T05:21:08.263Z,29.7
2019-03-17T05:21:58.902Z,29
2019-03-17T05:22:48.977Z,28.5
2019-03-17T05:23:38.715Z,28.2
2019-03-17T05:24:28.547Z,27.9
2019-03-17T05:25:18.902Z,27.8
2019-03-17T05:26:09.507Z,27.6
2019-03-17T05:26:58.722Z,27.4
2019-03-17T05:27:49.298Z,27.4
2019-03-17T05:28:38.555Z,27.3
2019-03-17T05:29:29.527Z,27.2
2019-03-17T05:30:19.096Z,27.1
2019-03-17T05:31:08.134Z,27
2019-03-17T05:31:59.530Z,26.8
2019-03-17T05:32:49.351Z,28.3
2019-03-17T05:33:40.189Z,29.7
2019-03-17T05:34:29.532Z,31
2019-03-17T05:35:19.283Z,31.7
2019-03-17T05:36:09.390Z,31.9
2019-03-17T05:37:14.210Z,32.2
2019-03-17T05:37:49.563Z,32.5
2019-03-17T05:38:39.896Z,32.7
2019-03-17T05:39:29.396Z,32.9
2019-03-17T05:40:19.394Z,33.3
2019-03-17T05:41:09.399Z,33.5
2019-03-17T05:42:00.210Z,33.8
2019-03-17T05:42:51.006Z,34
2019-03-17T05:43:39.782Z,34.3
2019-03-17T05:44:31.011Z,34.4
2019-03-17T05:45:20.726Z,34.6
2019-03-17T05:46:10.586Z,34.8
2019-03-17T05:47:00.329Z,34.4
2019-03-17T05:47:50.387Z,34.2
2019-03-17T05:48:40.426Z,33.9
2019-03-17T05:49:30.215Z,33.6
2019-03-17T05:50:21.178Z,33.4
2019-03-17T05:51:11.170Z,33.2
2019-03-17T05:52:00.750Z,33
2019-03-17T05:52:50.445Z,32.8
2019-03-17T05:53:43.789Z,32.6
2019-03-17T05:54:31.293Z,32.4
2019-03-17T05:55:21.488Z,32.3
2019-03-17T05:56:11.333Z,32.2
2019-03-17T05:57:01.180Z,32
2019-03-17T05:57:51.683Z,31.8
2019-03-17T05:58:41.833Z,31.7
2019-03-17T05:59:31.033Z,31.6
2019-03-17T06:00:20.578Z,31.4
2019-03-17T06:01:11.046Z,31.3
2019-03-17T06:02:00.921Z,31.1
2019-03-17T06:02:50.944Z,30.9
2019-03-17T06:05:38.908Z,30.5
2019-03-17T06:06:28.576Z,30.3
2019-03-17T06:07:28.197Z,30.2
2019-03-17T06:08:08.743Z,30.1
2019-03-17T06:08:59.683Z,29.9
2019-03-17T06:09:48.270Z,29.8
2019-03-17T06:10:38.322Z,29.7
2019-03-17T06:11:28.967Z,29.6
2019-03-17T06:12:18.997Z,29.4
2019-03-17T06:13:10.197Z,29.3
2019-03-17T06:14:01.212Z,29.1
2019-03-17T06:14:49.837Z,28.9
2019-03-17T06:15:39.538Z,29.7
2019-03-17T06:16:28.742Z,30.8
2019-03-17T06:17:19.912Z,31.8
2019-03-17T06:18:09.485Z,32.1
2019-03-17T06:19:00.027Z,32.3
2019-03-17T06:19:50.101Z,32.6
2019-03-17T06:20:39.589Z,32.8
2019-03-17T06:21:30.799Z,33
2019-03-17T06:22:19.492Z,33.3
2019-03-17T06:23:09.600Z,33.6
2019-03-17T06:23:59.539Z,33.9
2019-03-17T06:24:49.979Z,34.1
2019-03-17T06:25:40.569Z,34.4
2019-03-17T06:26:30.560Z,34.6
2019-03-17T06:27:20.378Z,34.8
2019-03-17T06:28:10.698Z,34.9
2019-03-17T06:29:00.537Z,34.3
2019-03-17T06:29:49.718Z,33.9
2019-03-17T06:30:40.696Z,33.6
2019-03-17T06:31:31.232Z,33.4
2019-03-17T06:32:20.465Z,33.2
2019-03-17T06:33:10.743Z,32.9
2019-03-17T06:34:01.450Z,32.8
2019-03-17T06:34:50.644Z,32.6
2019-03-17T06:35:40.729Z,32.4
2019-03-17T06:36:31.639Z,32.3
2019-03-17T06:37:34.113Z,32.1
2019-03-17T06:38:10.303Z,31.9
2019-03-17T06:39:00.896Z,31.8
2019-03-17T06:39:50.943Z,31.6
2019-03-17T06:40:41.048Z,31.5
2019-03-17T06:41:30.808Z,31.4
2019-03-17T06:42:21.413Z,31.2
2019-03-17T06:43:11.226Z,31.1
2019-03-17T06:44:01.528Z,30.9
2019-03-17T06:44:51.957Z,30.8
2019-03-17T06:45:41.083Z,30.6
2019-03-17T06:46:30.040Z,30.5
2019-03-17T06:47:21.845Z,30.4
2019-03-17T06:48:11.843Z,30.3
2019-03-17T06:49:02.240Z,30.1
2019-03-17T06:49:51.700Z,29.9
2019-03-17T06:50:41.470Z,29.8
2019-03-17T06:51:32.187Z,29.7
2019-03-17T06:52:22.115Z,29.6
2019-03-17T06:53:12.203Z,29.4
2019-03-17T06:54:05.922Z,29.3
2019-03-17T06:54:52.036Z,29.2
2019-03-17T06:55:42.615Z,29.1
2019-03-17T06:56:32.127Z,28.9
2019-03-17T06:57:21.911Z,29.9
2019-03-17T06:58:11.140Z,31.1
2019-03-17T06:59:02.087Z,31.7
2019-03-17T06:59:52.705Z,32.1
2019-03-17T07:00:41.587Z,32.4
2019-03-17T07:01:33.057Z,32.7
2019-03-17T07:02:23.376Z,33
2019-03-17T07:03:12.592Z,33.3
2019-03-17T07:05:38.777Z,34.2
2019-03-17T07:06:28.734Z,34.5
2019-03-17T07:07:18.611Z,34.8
2019-03-17T07:08:09.446Z,34.9
2019-03-17T07:08:59.801Z,34.6
2019-03-17T07:09:49.048Z,34.3
2019-03-17T07:10:39.123Z,33.9
2019-03-17T07:11:28.416Z,33.4
2019-03-17T07:12:19.063Z,32.9
2019-03-17T07:13:09.576Z,32.5
2019-03-17T07:13:59.406Z,32.2
2019-03-17T07:14:49.771Z,31.9
2019-03-17T07:15:38.927Z,31.8
2019-03-17T07:16:29.292Z,31.6
2019-03-17T07:17:21.976Z,31.4
2019-03-17T07:18:08.634Z,31.2
2019-03-17T07:19:00.229Z,31.1
2019-03-17T07:19:48.952Z,30.9
2019-03-17T07:20:40.461Z,30.8
2019-03-17T07:21:30.236Z,30.8
2019-03-17T07:22:19.996Z,30.6
2019-03-17T07:23:09.806Z,30.4
2019-03-17T07:23:59.958Z,30.4
2019-03-17T07:24:49.386Z,30.3
2019-03-17T07:25:39.831Z,30.2
2019-03-17T07:26:29.799Z,30.1
2019-03-17T07:27:19.375Z,29.9
2019-03-17T07:28:09.330Z,29.8
2019-03-17T07:29:01.013Z,29.8
2019-03-17T07:29:53.701Z,29.6
2019-03-17T07:30:40.855Z,29.5
2019-03-17T07:31:30.415Z,29.4
2019-03-17T07:32:20.880Z,29.3
2019-03-17T07:33:10.213Z,29.2
2019-03-17T07:34:01.297Z,29.1
2019-03-17T07:34:50.862Z,29
2019-03-17T07:35:40.920Z,28.9
2019-03-17T07:36:30.752Z,28.8
2019-03-17T07:37:19.983Z,28.7
2019-03-17T07:38:10.605Z,28.6
2019-03-17T07:39:13.455Z,28.4
2019-03-17T07:39:50.190Z,28.3
2019-03-17T07:40:41.195Z,28.3
2019-03-17T07:41:31.349Z,28.1
2019-03-17T07:42:21.167Z,28.1
2019-03-17T07:43:11.782Z,27.9
2019-03-17T07:44:51.617Z,27.7
2019-03-17T07:45:41.969Z,27.6
2019-03-17T07:46:46.642Z,27.6
2019-03-17T07:47:21.572Z,27.4
2019-03-17T07:48:11.608Z,27.3
2019-03-17T07:49:02.244Z,27.3
2019-03-17T07:49:52.549Z,27.1
2019-03-17T07:50:41.267Z,27
2019-03-17T07:51:32.071Z,26.9
2019-03-17T07:52:22.184Z,26.8
2019-03-17T07:53:10.759Z,26.8
2019-03-17T07:54:02.254Z,26.6
2019-03-17T07:54:51.469Z,26.5
2019-03-17T07:55:41.639Z,26.4
2019-03-17T07:56:32.991Z,26.4
2019-03-17T07:57:21.143Z,26.3
2019-03-17T07:58:11.736Z,26.1
2019-03-17T07:59:01.126Z,26.1
2019-03-17T07:59:52.431Z,25.9
2019-03-17T08:00:41.659Z,25.9
2019-03-17T08:01:32.859Z,25.8
2019-03-17T08:02:22.179Z,25.7
2019-03-17T08:03:12.556Z,25.6
2019-03-17T08:04:03.564Z,25.6
2019-03-17T08:04:56.388Z,25.5
2019-03-17T08:05:43.072Z,25.4
2019-03-17T08:06:32.698Z,25.3
2019-03-17T08:07:25.093Z,25.3
2019-03-17T08:08:19.846Z,25.2
2019-03-17T08:09:03.933Z,25.2
2019-03-17T08:09:53.917Z,25
2019-03-17T08:10:58.529Z,25
2019-03-17T08:11:34.267Z,24.9
2019-03-17T08:12:23.228Z,24.9
2019-03-17T08:13:13.947Z,24.8
2019-03-17T08:14:02.273Z,24.8
2019-03-17T08:14:53.731Z,24.7
2019-03-17T08:15:43.610Z,24.6
2019-03-17T08:16:33.562Z,24.6
2019-03-17T08:17:23.865Z,24.6
2019-03-17T08:18:13.931Z,24.5
2019-03-17T08:19:04.410Z,24.4
2019-03-17T08:19:53.855Z,24.4
2019-03-17T08:20:43.832Z,24.3
2019-03-17T08:21:34.435Z,24.3
2019-03-17T08:22:24.275Z,24.2
2019-03-17T10:06:37.861Z,21.8
2019-03-17T10:07:27.984Z,21.7
2019-03-17T10:08:18.750Z,21.8
2019-03-17T10:09:09.162Z,21.7
2019-03-17T10:09:59.121Z,21.8
2019-03-17T10:10:48.686Z,21.8
2019-03-17T10:11:38.246Z,21.7
2019-03-17T10:12:29.427Z,21.8
2019-03-17T10:13:19.716Z,21.7
2019-03-17T10:14:09.495Z,21.7
2019-03-17T10:14:59.516Z,21.7
2019-03-17T10:15:48.704Z,21.7
2019-03-17T10:16:39.366Z,21.6
2019-03-17T10:17:29.514Z,21.6
2019-03-17T10:18:19.514Z,21.6
2019-03-17T10:19:09.808Z,21.6
2019-03-17T10:19:58.873Z,21.6
2019-03-17T10:20:47.041Z,21.6
2019-03-17T10:21:39.782Z,21.6
2019-03-17T10:22:30.099Z,21.6
2019-03-17T10:23:19.526Z,21.6
2019-03-17T10:24:10.007Z,21.6
2019-03-17T10:24:59.628Z,21.6
2019-03-17T10:25:49.743Z,21.6
2019-03-17T10:26:40.047Z,21.6
2019-03-17T10:27:29.583Z,21.6
2019-03-17T10:28:20.293Z,21.6
2019-03-17T10:29:23.788Z,21.6
2019-03-17T10:30:01.391Z,21.5
2019-03-17T10:30:50.902Z,21.5
2019-03-17T10:31:40.970Z,21.5
2019-03-17T10:32:30.755Z,21.4
2019-03-17T10:33:20.822Z,21.5
2019-03-17T10:34:10.628Z,21.5
2019-03-17T10:35:00.257Z,21.5
2019-03-17T10:35:51.270Z,21.5
2019-03-17T10:36:40.493Z,21.4
2019-03-17T10:37:30.852Z,21.5
2019-03-17T10:38:21.428Z,21.5
2019-03-17T10:39:22.340Z,21.5
2019-03-17T10:40:01.780Z,21.5
2019-03-17T10:40:50.330Z,21.5
2019-03-17T10:41:40.360Z,21.4
2019-03-17T10:42:33.994Z,21.5
2019-03-17T10:43:21.382Z,21.4
2019-03-17T10:44:11.317Z,21.5
2019-03-17T10:44:59.777Z,21.5
2019-03-17T10:45:51.507Z,21.4
2019-03-17T10:46:40.744Z,21.4
2019-03-17T10:47:31.309Z,21.5
2019-03-17T10:48:20.492Z,21.5
2019-03-17T10:49:11.005Z,21.4
2019-03-17T10:50:01.995Z,21.5
2019-03-17T10:50:59.589Z,21.4
2019-03-17T10:51:41.663Z,21.5
2019-03-17T10:52:31.854Z,21.5
2019-03-17T10:53:21.741Z,21.4
2019-03-17T10:54:10.773Z,21.5
2019-03-17T10:55:01.382Z,21.4
2019-03-17T10:55:51.112Z,21.4
2019-03-17T10:56:41.461Z,21.4
2019-03-17T10:57:31.775Z,21.4
2019-03-17T10:58:21.864Z,21.4
2019-03-17T10:59:11.331Z,21.4
2019-03-17T11:00:00.862Z,21.5
2019-03-17T11:00:50.728Z,21.4
2019-03-17T11:01:41.374Z,21.4
2019-03-17T11:02:32.225Z,21.4
2019-03-17T11:03:21.914Z,21.4
2019-03-17T11:04:12.404Z,21.4
2019-03-17T11:05:01.801Z,21.4
2019-03-17T11:05:54.957Z,21.4
2019-03-17T11:06:41.681Z,21.4
2019-03-17T11:07:31.978Z,21.4
2019-03-17T11:08:22.016Z,21.4
2019-03-17T11:09:27.973Z,21.5
2019-03-17T11:10:02.037Z,21.4
2019-03-17T11:10:52.758Z,21.4
2019-03-17T11:11:43.120Z,21.3
2019-03-17T11:12:32.934Z,21.3
2019-03-17T11:13:23.125Z,21.4
2019-03-17T11:14:13.070Z,21.4
2019-03-17T11:15:03.283Z,21.4
2019-03-17T11:15:53.571Z,21.4
2019-03-17T11:16:43.440Z,21.4
2019-03-17T11:17:34.528Z,21.4
2019-03-17T11:18:23.968Z,21.4
2019-03-17T11:19:14.100Z,21.4
2019-03-17T11:20:03.035Z,21.4
2019-03-17T11:20:53.180Z,21.4
2019-03-17T11:21:43.765Z,21.4
2019-03-17T11:22:32.378Z,21.4
2019-03-17T11:23:24.456Z,21.4
2019-03-17T11:24:13.380Z,21.4
2019-03-17T11:25:04.125Z,21.4
2019-03-17T11:25:53.500Z,21.4
2019-03-17T11:26:43.382Z,21.4
2019-03-17T11:27:35.003Z,21.4
2019-03-17T11:28:25.138Z,21.4
2019-03-17T11:29:14.900Z,21.4
2019-03-17T11:30:04.922Z,21.4
2019-03-17T11:30:54.724Z,21.4
2019-03-17T11:31:44.181Z,21.4
2019-03-17T11:32:34.747Z,21.4
2019-03-17T11:33:24.602Z,21.4
2019-03-17T11:34:14.674Z,21.4
2019-03-17T11:35:04.977Z,21.4
2019-03-17T11:35:55.296Z,21.3
2019-03-17T11:36:44.878Z,21.3
2019-03-17T11:37:35.523Z,21.4
2019-03-17T11:38:24.727Z,21.3
2019-03-17T11:39:15.134Z,21.3
2019-03-17T11:40:04.892Z,21.4
2019-03-17T11:40:55.109Z,21.4
2019-03-17T11:41:45.144Z,21.3
2019-03-17T11:42:35.554Z,21.3
2019-03-17T11:43:25.311Z,21.4
2019-03-17T11:44:15.733Z,21.4
2019-03-17T11:45:05.779Z,21.3
2019-03-17T11:45:56.065Z,21.3
2019-03-17T11:46:45.043Z,21.3
2019-03-17T11:47:35.381Z,21.3
2019-03-17T11:48:26.469Z,21.3
2019-03-17T11:49:15.677Z,21.3
2019-03-17T11:50:06.424Z,21.3
2019-03-17T11:50:56.306Z,21.3
2019-03-17T11:51:46.218Z,21.4
2019-03-17T11:52:35.638Z,21.3
2019-03-17T11:53:26.289Z,21.3
2019-03-17T11:54:16.688Z,21.3
2019-03-17T11:55:06.512Z,21.3
2019-03-17T11:55:56.523Z,21.3
2019-03-17T11:56:45.429Z,21.3
2019-03-17T11:57:36.328Z,21.3
2019-03-17T11:58:27.169Z,21.3
2019-03-17T11:59:16.991Z,21.3
2019-03-17T12:00:07.096Z,21.3
2019-03-17T12:00:56.024Z,21.3
2019-03-17T12:01:45.784Z,21.3
2019-03-17T12:02:36.228Z,21.3
2019-03-17T12:03:25.889Z,21.3
2019-03-17T12:04:22.873Z,21.3
2019-03-17T12:06:38.277Z,21.3
2019-03-17T12:07:28.664Z,21.3
2019-03-17T12:08:18.817Z,21.3
2019-03-17T12:09:11.649Z,21.3
2019-03-17T12:10:00.046Z,21.3
2019-03-17T12:10:49.334Z,21.3
2019-03-17T12:11:38.118Z,21.3
2019-03-17T12:12:44.401Z,21.3
2019-03-17T12:13:18.723Z,21.3
2019-03-17T12:14:12.488Z,21.3
2019-03-17T12:14:58.207Z,21.3
2019-03-17T12:15:49.205Z,21.3
2019-03-17T12:16:39.121Z,21.3
2019-03-17T12:17:29.323Z,21.3
2019-03-17T12:18:18.873Z,21.3
2019-03-17T12:19:10.258Z,21.3
2019-03-17T12:19:59.933Z,21.3
2019-03-17T12:20:49.278Z,21.3
2019-03-17T12:21:39.933Z,21.4
2019-03-17T12:22:29.905Z,21.3
2019-03-17T12:23:18.607Z,21.3
2019-03-17T12:24:10.021Z,21.4
2019-03-17T12:25:00.057Z,21.3
2019-03-17T12:25:49.666Z,21.3
2019-03-17T12:26:39.955Z,21.4
2019-03-17T12:27:30.517Z,21.3
2019-03-17T12:28:21.065Z,21.4
2019-03-17T12:29:10.420Z,21.4
2019-03-17T12:30:00.491Z,21.4
2019-03-17T12:30:49.991Z,21.3
2019-03-17T12:31:41.220Z,21.3
2019-03-17T12:32:30.493Z,21.3
2019-03-17T12:33:20.845Z,21.3
2019-03-17T12:34:10.133Z,21.3
2019-03-17T12:35:01.360Z,21.4
2019-03-17T12:35:50.945Z,21.4
2019-03-17T12:36:40.430Z,21.4
2019-03-17T12:37:29.972Z,21.4
2019-03-17T12:38:20.557Z,21.3
2019-03-17T12:39:11.466Z,21.4
2019-03-17T12:40:13.039Z,21.4
2019-03-17T12:40:50.763Z,21.4
2019-03-17T12:41:43.474Z,21.3
2019-03-17T12:42:30.872Z,21.3
2019-03-17T12:43:25.006Z,21.4
2019-03-17T12:44:11.584Z,21.4
2019-03-17T12:45:00.396Z,21.3
2019-03-17T12:45:51.622Z,21.4
2019-03-17T12:46:41.177Z,21.4
2019-03-17T12:47:30.886Z,21.4
2019-03-17T12:48:21.534Z,21.4
2019-03-17T12:49:11.316Z,21.4
2019-03-17T12:50:01.843Z,21.3
2019-03-17T12:50:51.684Z,21.4
2019-03-17T12:51:41.784Z,21.3
2019-03-17T12:52:31.279Z,21.3
2019-03-17T12:53:21.346Z,21.4
2019-03-17T12:54:11.229Z,21.3
2019-03-17T12:55:02.177Z,21.3
2019-03-17T12:55:51.816Z,21.3
2019-03-17T12:56:42.161Z,21.3
2019-03-17T12:57:31.071Z,21.3
2019-03-17T12:58:24.789Z,21.3
2019-03-17T12:59:11.511Z,21.3
2019-03-17T13:00:02.555Z,21.3